sensor_id;sensor_type;location;lat;lon;timestamp;pressure;altitude;pressure_sealevel;temperature;humidity
15817;BME280;8009;50.070;8.232;2024-02-26T00:00:37;98125.38;;;11.84;47.40
15817;BME280;8009;50.070;8.232;2024-02-26T00:03:08;98121.13;;;12.14;45.93
15817;BME280;8009;50.070;8.232;2024-02-26T00:05:37;98117.38;;;11.74;46.30
15817;BME280;8009;50.070;8.232;2024-02-26T00:08:06;98109.97;;;12.01;45.84
15817;BME280;8009;50.070;8.232;2024-02-26T00:10:34;98108.44;;;11.65;46.36
15817;BME280;8009;50.070;8.232;2024-02-26T00:13:03;98104.34;;;11.29;47.02
15817;BME280;8009;50.070;8.232;2024-02-26T00:15:31;98083.75;;;11.52;46.35
15817;BME280;8009;50.070;8.232;2024-02-26T00:18:00;98078.19;;;11.86;45.98
15817;BME280;8009;50.070;8.232;2024-02-26T00:20:31;98074.78;;;12.01;46.43
15817;BME280;8009;50.070;8.232;2024-02-26T00:23:00;98067.53;;;11.77;47.84
15817;BME280;8009;50.070;8.232;2024-02-26T00:25:28;98066.34;;;11.55;46.23
15817;BME280;8009;50.070;8.232;2024-02-26T00:27:57;98069.41;;;11.68;45.58
15817;BME280;8009;50.070;8.232;2024-02-26T00:30:25;98069.53;;;12.07;45.20
15817;BME280;8009;50.070;8.232;2024-02-26T00:32:53;98079.19;;;11.93;45.45
15817;BME280;8009;50.070;8.232;2024-02-26T00:35:22;98074.84;;;12.40;44.47
15817;BME280;8009;50.070;8.232;2024-02-26T00:37:53;98068.41;;;12.49;44.75
15817;BME280;8009;50.070;8.232;2024-02-26T00:40:21;98070.97;;;12.42;44.99
15817;BME280;8009;50.070;8.232;2024-02-26T00:42:49;98062.50;;;12.46;44.79
15817;BME280;8009;50.070;8.232;2024-02-26T00:45:18;98065.22;;;12.37;45.20
15817;BME280;8009;50.070;8.232;2024-02-26T00:47:46;98053.16;;;12.56;44.49
15817;BME280;8009;50.070;8.232;2024-02-26T00:50:15;98073.66;;;12.42;45.21
15817;BME280;8009;50.070;8.232;2024-02-26T00:52:43;98083.97;;;12.47;44.28
15817;BME280;8009;50.070;8.232;2024-02-26T00:55:14;98077.19;;;12.51;45.23
15817;BME280;8009;50.070;8.232;2024-02-26T00:57:43;98071.94;;;12.50;46.82
15817;BME280;8009;50.070;8.232;2024-02-26T01:00:12;98051.78;;;12.05;45.78
15817;BME280;8009;50.070;8.232;2024-02-26T01:02:41;98075.34;;;12.43;45.50
15817;BME280;8009;50.070;8.232;2024-02-26T01:05:12;98095.25;;;12.67;45.07
15817;BME280;8009;50.070;8.232;2024-02-26T01:07:41;98106.88;;;12.76;45.33
15817;BME280;8009;50.070;8.232;2024-02-26T01:10:10;98096.00;;;12.44;45.85
15817;BME280;8009;50.070;8.232;2024-02-26T01:12:41;98097.63;;;11.90;47.18
15817;BME280;8009;50.070;8.232;2024-02-26T01:15:09;98090.34;;;11.90;47.15
15817;BME280;8009;50.070;8.232;2024-02-26T01:17:40;98092.03;;;12.08;45.80
15817;BME280;8009;50.070;8.232;2024-02-26T01:20:10;98093.56;;;12.58;45.68
15817;BME280;8009;50.070;8.232;2024-02-26T01:22:38;98102.69;;;12.65;46.19
15817;BME280;8009;50.070;8.232;2024-02-26T01:25:07;98085.69;;;12.32;47.36
15817;BME280;8009;50.070;8.232;2024-02-26T01:27:36;98101.31;;;12.22;46.50
15817;BME280;8009;50.070;8.232;2024-02-26T01:30:10;98084.69;;;12.25;45.61
15817;BME280;8009;50.070;8.232;2024-02-26T01:32:41;98068.38;;;11.93;45.94
15817;BME280;8009;50.070;8.232;2024-02-26T01:35:09;98081.06;;;11.77;46.92
15817;BME280;8009;50.070;8.232;2024-02-26T01:37:38;98088.34;;;11.68;46.53
15817;BME280;8009;50.070;8.232;2024-02-26T01:40:08;98090.03;;;11.85;46.76
15817;BME280;8009;50.070;8.232;2024-02-26T01:42:38;98080.56;;;11.57;46.75
15817;BME280;8009;50.070;8.232;2024-02-26T01:45:13;98099.84;;;11.94;46.38
15817;BME280;8009;50.070;8.232;2024-02-26T01:47:48;98102.78;;;12.40;45.58
15817;BME280;8009;50.070;8.232;2024-02-26T01:50:18;98095.75;;;11.82;46.63
15817;BME280;8009;50.070;8.232;2024-02-26T01:52:49;98113.28;;;11.29;48.30
15817;BME280;8009;50.070;8.232;2024-02-26T01:55:18;98104.88;;;11.65;47.02
15817;BME280;8009;50.070;8.232;2024-02-26T01:57:49;98097.47;;;11.83;46.54
15817;BME280;8009;50.070;8.232;2024-02-26T02:00:22;98090.00;;;12.18;46.91
15817;BME280;8009;50.070;8.232;2024-02-26T02:02:51;98089.66;;;12.21;45.61
15817;BME280;8009;50.070;8.232;2024-02-26T02:05:20;98092.22;;;11.90;46.15
15817;BME280;8009;50.070;8.232;2024-02-26T02:07:49;98089.00;;;11.86;47.00
15817;BME280;8009;50.070;8.232;2024-02-26T02:10:18;98098.47;;;11.66;47.13
15817;BME280;8009;50.070;8.232;2024-02-26T02:12:51;98108.78;;;11.95;46.52
15817;BME280;8009;50.070;8.232;2024-02-26T02:15:22;98106.72;;;12.05;46.23
15817;BME280;8009;50.070;8.232;2024-02-26T02:17:50;98095.50;;;12.41;46.09
15817;BME280;8009;50.070;8.232;2024-02-26T02:20:18;98106.75;;;11.73;47.01
15817;BME280;8009;50.070;8.232;2024-02-26T02:22:50;98109.88;;;12.41;46.17
15817;BME280;8009;50.070;8.232;2024-02-26T02:25:18;98111.94;;;12.31;46.20
15817;BME280;8009;50.070;8.232;2024-02-26T02:27:47;98119.06;;;11.75;46.68
15817;BME280;8009;50.070;8.232;2024-02-26T02:30:15;98127.69;;;12.11;46.41
15817;BME280;8009;50.070;8.232;2024-02-26T02:32:44;98124.16;;;12.03;46.64
15817;BME280;8009;50.070;8.232;2024-02-26T02:35:12;98126.03;;;11.86;47.11
15817;BME280;8009;50.070;8.232;2024-02-26T02:37:41;98131.41;;;11.94;46.66
15817;BME280;8009;50.070;8.232;2024-02-26T02:40:12;98129.56;;;12.11;46.82
15817;BME280;8009;50.070;8.232;2024-02-26T02:42:41;98137.69;;;11.86;47.24
15817;BME280;8009;50.070;8.232;2024-02-26T02:45:09;98141.91;;;11.97;47.29
15817;BME280;8009;50.070;8.232;2024-02-26T02:47:38;98143.06;;;11.78;47.38
15817;BME280;8009;50.070;8.232;2024-02-26T02:50:07;98151.03;;;11.80;47.31
15817;BME280;8009;50.070;8.232;2024-02-26T02:52:35;98149.75;;;11.17;48.83
15817;BME280;8009;50.070;8.232;2024-02-26T02:55:04;98143.53;;;11.33;48.92
15817;BME280;8009;50.070;8.232;2024-02-26T02:57:35;98140.03;;;11.98;47.73
15817;BME280;8009;50.070;8.232;2024-02-26T03:00:08;98134.97;;;12.11;47.57
15817;BME280;8009;50.070;8.232;2024-02-26T03:02:37;98135.31;;;12.08;47.23
15817;BME280;8009;50.070;8.232;2024-02-26T03:05:06;98141.91;;;11.97;48.18
15817;BME280;8009;50.070;8.232;2024-02-26T03:07:35;98140.69;;;11.59;47.96
15817;BME280;8009;50.070;8.232;2024-02-26T03:10:03;98143.97;;;11.87;47.91
15817;BME280;8009;50.070;8.232;2024-02-26T03:12:34;98129.06;;;11.99;47.41
15817;BME280;8009;50.070;8.232;2024-02-26T03:15:03;98130.72;;;12.16;46.76
15817;BME280;8009;50.070;8.232;2024-02-26T03:17:32;98134.41;;;12.32;46.96
15817;BME280;8009;50.070;8.232;2024-02-26T03:20:00;98143.06;;;11.78;48.69
15817;BME280;8009;50.070;8.232;2024-02-26T03:22:30;98139.84;;;12.24;48.84
15817;BME280;8009;50.070;8.232;2024-02-26T03:24:59;98135.47;;;11.90;48.77
15817;BME280;8009;50.070;8.232;2024-02-26T03:27:27;98136.31;;;12.15;49.32
15817;BME280;8009;50.070;8.232;2024-02-26T03:29:58;98139.81;;;12.32;51.22
15817;BME280;8009;50.070;8.232;2024-02-26T03:32:26;98139.88;;;11.99;52.44
15817;BME280;8009;50.070;8.232;2024-02-26T03:34:54;98144.44;;;12.15;53.74
15817;BME280;8009;50.070;8.232;2024-02-26T03:37:23;98149.31;;;12.19;52.00
15817;BME280;8009;50.070;8.232;2024-02-26T03:39:51;98154.09;;;12.17;52.42
15817;BME280;8009;50.070;8.232;2024-02-26T03:42:20;98154.06;;;11.77;53.21
15817;BME280;8009;50.070;8.232;2024-02-26T03:44:48;98147.78;;;11.60;53.47
15817;BME280;8009;50.070;8.232;2024-02-26T03:47:19;98155.94;;;11.84;54.05
15817;BME280;8009;50.070;8.232;2024-02-26T03:49:47;98150.19;;;12.04;54.23
15817;BME280;8009;50.070;8.232;2024-02-26T03:52:15;98149.69;;;11.92;55.47
15817;BME280;8009;50.070;8.232;2024-02-26T03:54:44;98153.22;;;11.76;55.78
15817;BME280;8009;50.070;8.232;2024-02-26T03:57:12;98152.19;;;11.77;55.14
15817;BME280;8009;50.070;8.232;2024-02-26T03:59:40;98150.50;;;11.76;56.43
15817;BME280;8009;50.070;8.232;2024-02-26T04:02:09;98156.59;;;11.78;56.00
15817;BME280;8009;50.070;8.232;2024-02-26T04:04:40;98160.31;;;11.69;55.92
15817;BME280;8009;50.070;8.232;2024-02-26T04:07:08;98155.56;;;11.55;57.07
15817;BME280;8009;50.070;8.232;2024-02-26T04:09:36;98152.66;;;11.32;57.66
15817;BME280;8009;50.070;8.232;2024-02-26T04:12:06;98152.38;;;10.92;57.49
15817;BME280;8009;50.070;8.232;2024-02-26T04:14:35;98149.75;;;11.25;57.27
15817;BME280;8009;50.070;8.232;2024-02-26T04:17:04;98152.63;;;11.23;57.31
15817;BME280;8009;50.070;8.232;2024-02-26T04:19:32;98154.47;;;11.07;58.71
15817;BME280;8009;50.070;8.232;2024-02-26T04:22:03;98146.34;;;11.07;58.88
15817;BME280;8009;50.070;8.232;2024-02-26T04:24:32;98149.41;;;11.12;58.35
15817;BME280;8009;50.070;8.232;2024-02-26T04:27:00;98151.41;;;11.18;58.65
15817;BME280;8009;50.070;8.232;2024-02-26T04:29:28;98143.66;;;11.15;59.46
15817;BME280;8009;50.070;8.232;2024-02-26T04:31:57;98144.03;;;10.78;59.54
15817;BME280;8009;50.070;8.232;2024-02-26T04:34:25;98148.84;;;11.00;59.46
15817;BME280;8009;50.070;8.232;2024-02-26T04:36:54;98145.72;;;10.79;59.85
15817;BME280;8009;50.070;8.232;2024-02-26T04:39:25;98145.66;;;10.62;59.68
15817;BME280;8009;50.070;8.232;2024-02-26T04:41:53;98146.91;;;10.76;59.69
15817;BME280;8009;50.070;8.232;2024-02-26T04:44:22;98148.28;;;11.39;58.37
15817;BME280;8009;50.070;8.232;2024-02-26T04:46:50;98147.56;;;11.29;58.46
15817;BME280;8009;50.070;8.232;2024-02-26T04:49:18;98153.66;;;11.22;60.00
15817;BME280;8009;50.070;8.232;2024-02-26T04:51:46;98152.44;;;11.25;59.61
15817;BME280;8009;50.070;8.232;2024-02-26T04:54:15;98149.94;;;11.32;59.70
15817;BME280;8009;50.070;8.232;2024-02-26T04:56:46;98155.53;;;11.30;60.49
15817;BME280;8009;50.070;8.232;2024-02-26T04:59:14;98156.34;;;11.22;61.31
15817;BME280;8009;50.070;8.232;2024-02-26T05:01:42;98151.16;;;11.37;59.54
15817;BME280;8009;50.070;8.232;2024-02-26T05:04:11;98157.00;;;11.25;59.27
15817;BME280;8009;50.070;8.232;2024-02-26T05:06:39;98166.13;;;11.23;58.81
15817;BME280;8009;50.070;8.232;2024-02-26T05:09:08;98158.53;;;11.19;60.34
15817;BME280;8009;50.070;8.232;2024-02-26T05:11:36;98168.00;;;11.23;59.56
15817;BME280;8009;50.070;8.232;2024-02-26T05:14:08;98160.59;;;11.33;59.78
15817;BME280;8009;50.070;8.232;2024-02-26T05:16:37;98158.63;;;10.59;61.42
15817;BME280;8009;50.070;8.232;2024-02-26T05:19:06;98167.25;;;10.62;61.30
15817;BME280;8009;50.070;8.232;2024-02-26T05:21:34;98165.19;;;10.56;61.37
15817;BME280;8009;50.070;8.232;2024-02-26T05:24:03;98154.78;;;10.61;60.63
15817;BME280;8009;50.070;8.232;2024-02-26T05:26:31;98153.81;;;10.79;60.45
15817;BME280;8009;50.070;8.232;2024-02-26T05:29:00;98155.81;;;11.11;60.69
15817;BME280;8009;50.070;8.232;2024-02-26T05:31:31;98164.19;;;10.91;61.05
15817;BME280;8009;50.070;8.232;2024-02-26T05:33:59;98154.31;;;11.33;60.11
15817;BME280;8009;50.070;8.232;2024-02-26T05:36:27;98149.94;;;11.23;60.14
15817;BME280;8009;50.070;8.232;2024-02-26T05:38:58;98152.84;;;11.55;60.19
15817;BME280;8009;50.070;8.232;2024-02-26T05:41:27;98162.31;;;10.84;61.15
15817;BME280;8009;50.070;8.232;2024-02-26T05:43:55;98164.53;;;10.96;61.44
15817;BME280;8009;50.070;8.232;2024-02-26T05:46:24;98161.78;;;11.31;60.83
15817;BME280;8009;50.070;8.232;2024-02-26T05:48:55;98167.38;;;11.45;60.51
15817;BME280;8009;50.070;8.232;2024-02-26T05:51:23;98168.31;;;11.20;61.28
15817;BME280;8009;50.070;8.232;2024-02-26T05:53:51;98159.13;;;10.54;62.46
15817;BME280;8009;50.070;8.232;2024-02-26T05:56:23;98166.63;;;11.11;61.63
15817;BME280;8009;50.070;8.232;2024-02-26T05:58:51;98172.88;;;11.11;61.94
15817;BME280;8009;50.070;8.232;2024-02-26T06:01:20;98170.00;;;11.13;62.08
15817;BME280;8009;50.070;8.232;2024-02-26T06:03:49;98167.63;;;10.76;62.87
15817;BME280;8009;50.070;8.232;2024-02-26T06:06:20;98181.59;;;11.05;61.92
15817;BME280;8009;50.070;8.232;2024-02-26T06:08:49;98176.41;;;11.12;61.65
15817;BME280;8009;50.070;8.232;2024-02-26T06:11:18;98182.31;;;10.73;62.93
15817;BME280;8009;50.070;8.232;2024-02-26T06:13:49;98186.44;;;10.85;62.23
15817;BME280;8009;50.070;8.232;2024-02-26T06:16:17;98190.78;;;10.78;63.08
15817;BME280;8009;50.070;8.232;2024-02-26T06:18:45;98195.56;;;10.58;64.15
15817;BME280;8009;50.070;8.232;2024-02-26T06:21:14;98193.41;;;10.62;63.43
15817;BME280;8009;50.070;8.232;2024-02-26T06:23:45;98202.03;;;10.39;63.82
15817;BME280;8009;50.070;8.232;2024-02-26T06:26:14;98201.41;;;10.80;63.18
15817;BME280;8009;50.070;8.232;2024-02-26T06:28:42;98206.13;;;10.78;63.33
15817;BME280;8009;50.070;8.232;2024-02-26T06:31:11;98216.22;;;11.10;61.67
15817;BME280;8009;50.070;8.232;2024-02-26T06:33:39;98216.94;;;11.20;62.77
15817;BME280;8009;50.070;8.232;2024-02-26T06:36:08;98224.31;;;11.10;62.94
15817;BME280;8009;50.070;8.232;2024-02-26T06:38:36;98225.47;;;10.65;62.89
15817;BME280;8009;50.070;8.232;2024-02-26T06:41:07;98230.34;;;10.61;63.21
15817;BME280;8009;50.070;8.232;2024-02-26T06:43:36;98242.97;;;10.35;64.35
15817;BME280;8009;50.070;8.232;2024-02-26T06:46:07;98238.50;;;10.25;64.02
15817;BME280;8009;50.070;8.232;2024-02-26T06:48:35;98237.22;;;10.12;64.89
15817;BME280;8009;50.070;8.232;2024-02-26T06:51:04;98246.88;;;10.22;64.67
15817;BME280;8009;50.070;8.232;2024-02-26T06:53:32;98240.34;;;10.43;63.46
15817;BME280;8009;50.070;8.232;2024-02-26T06:56:01;98246.44;;;10.09;64.55
15817;BME280;8009;50.070;8.232;2024-02-26T06:58:32;98255.84;;;10.05;65.70
15817;BME280;8009;50.070;8.232;2024-02-26T07:01:01;98250.41;;;9.97;65.04
15817;BME280;8009;50.070;8.232;2024-02-26T07:03:29;98259.69;;;10.20;64.30
15817;BME280;8009;50.070;8.232;2024-02-26T07:05:58;98266.88;;;10.30;63.87
15817;BME280;8009;50.070;8.232;2024-02-26T07:08:26;98263.63;;;10.26;64.63
15817;BME280;8009;50.070;8.232;2024-02-26T07:10:54;98273.19;;;10.02;64.63
15817;BME280;8009;50.070;8.232;2024-02-26T07:13:23;98269.16;;;10.07;64.66
15817;BME280;8009;50.070;8.232;2024-02-26T07:15:54;98284.63;;;10.22;64.23
15817;BME280;8009;50.070;8.232;2024-02-26T07:18:22;98286.44;;;10.14;63.79
15817;BME280;8009;50.070;8.232;2024-02-26T07:20:51;98286.22;;;10.25;64.22
15817;BME280;8009;50.070;8.232;2024-02-26T07:23:19;98280.97;;;10.06;64.52
15817;BME280;8009;50.070;8.232;2024-02-26T07:25:47;98286.91;;;10.09;64.26
15817;BME280;8009;50.070;8.232;2024-02-26T07:28:18;98299.38;;;9.74;66.02
15817;BME280;8009;50.070;8.232;2024-02-26T07:30:47;98296.88;;;9.63;65.75
15817;BME280;8009;50.070;8.232;2024-02-26T07:33:17;98289.53;;;10.37;63.11
15817;BME280;8009;50.070;8.232;2024-02-26T07:35:46;98296.94;;;8.89;67.28
15817;BME280;8009;50.070;8.232;2024-02-26T07:38:15;98297.72;;;9.64;65.84
15817;BME280;8009;50.070;8.232;2024-02-26T07:40:44;98303.03;;;9.00;66.14
15817;BME280;8009;50.070;8.232;2024-02-26T07:43:13;98293.81;;;9.76;65.29
15817;BME280;8009;50.070;8.232;2024-02-26T07:45:41;98300.91;;;9.95;64.42
15817;BME280;8009;50.070;8.232;2024-02-26T07:48:10;98305.66;;;9.65;65.51
15817;BME280;8009;50.070;8.232;2024-02-26T07:50:41;98294.84;;;9.93;65.24
15817;BME280;8009;50.070;8.232;2024-02-26T07:53:10;98303.25;;;10.08;64.11
15817;BME280;8009;50.070;8.232;2024-02-26T07:55:38;98307.03;;;10.33;63.21
15817;BME280;8009;50.070;8.232;2024-02-26T07:58:06;98292.63;;;9.88;64.97
15817;BME280;8009;50.070;8.232;2024-02-26T08:00:35;98301.09;;;10.29;63.99
15817;BME280;8009;50.070;8.232;2024-02-26T08:03:04;98310.06;;;10.56;63.39
15817;BME280;8009;50.070;8.232;2024-02-26T08:05:33;98314.00;;;10.61;63.24
15817;BME280;8009;50.070;8.232;2024-02-26T08:08:08;98315.78;;;10.17;64.56
15817;BME280;8009;50.070;8.232;2024-02-26T08:10:36;98319.84;;;10.74;63.30
15817;BME280;8009;50.070;8.232;2024-02-26T08:13:05;98324.91;;;10.78;62.92
15817;BME280;8009;50.070;8.232;2024-02-26T08:15:33;98330.78;;;9.84;65.73
15817;BME280;8009;50.070;8.232;2024-02-26T08:18:03;98329.72;;;9.94;64.98
15817;BME280;8009;50.070;8.232;2024-02-26T08:20:31;98327.91;;;10.13;65.01
15817;BME280;8009;50.070;8.232;2024-02-26T08:23:00;98330.50;;;10.22;64.02
15817;BME280;8009;50.070;8.232;2024-02-26T08:25:31;98328.28;;;10.18;64.53
15817;BME280;8009;50.070;8.232;2024-02-26T08:27:59;98330.97;;;10.18;64.88
15817;BME280;8009;50.070;8.232;2024-02-26T08:30:25;98331.19;;;9.89;65.22
15817;BME280;8009;50.070;8.232;2024-02-26T08:32:53;98337.47;;;9.80;65.38
15817;BME280;8009;50.070;8.232;2024-02-26T08:35:22;98341.00;;;10.25;64.19
15817;BME280;8009;50.070;8.232;2024-02-26T08:37:50;98328.38;;;10.08;64.44
15817;BME280;8009;50.070;8.232;2024-02-26T08:40:18;98333.31;;;10.31;64.31
15817;BME280;8009;50.070;8.232;2024-02-26T08:42:50;98342.06;;;10.68;64.46
15817;BME280;8009;50.070;8.232;2024-02-26T08:45:18;98337.59;;;10.59;64.08
15817;BME280;8009;50.070;8.232;2024-02-26T08:47:47;98345.94;;;10.30;64.98
15817;BME280;8009;50.070;8.232;2024-02-26T08:50:15;98343.13;;;10.22;64.44
15817;BME280;8009;50.070;8.232;2024-02-26T08:52:43;98343.59;;;10.71;63.86
15817;BME280;8009;50.070;8.232;2024-02-26T08:55:15;98346.94;;;10.65;64.73
15817;BME280;8009;50.070;8.232;2024-02-26T08:57:44;98348.34;;;10.51;64.73
15817;BME280;8009;50.070;8.232;2024-02-26T09:00:16;98358.03;;;10.26;64.69
15817;BME280;8009;50.070;8.232;2024-02-26T09:02:45;98347.66;;;10.31;64.96
15817;BME280;8009;50.070;8.232;2024-02-26T09:05:16;98350.63;;;10.10;65.19
15817;BME280;8009;50.070;8.232;2024-02-26T09:07:44;98348.00;;;10.18;65.08
15817;BME280;8009;50.070;8.232;2024-02-26T09:10:13;98345.81;;;10.49;64.95
15817;BME280;8009;50.070;8.232;2024-02-26T09:12:41;98352.41;;;10.55;64.28
15817;BME280;8009;50.070;8.232;2024-02-26T09:15:09;98347.78;;;10.47;nan
15817;BME280;8009;50.070;8.232;2024-02-26T09:17:40;98345.31;;;10.00;66.21
15817;BME280;8009;50.070;8.232;2024-02-26T09:20:11;98340.00;;;10.44;65.14
15817;BME280;8009;50.070;8.232;2024-02-26T09:22:41;98335.97;;;9.95;66.34
15817;BME280;8009;50.070;8.232;2024-02-26T09:25:09;98350.53;;;10.02;66.17
15817;BME280;8009;50.070;8.232;2024-02-26T09:27:38;98345.94;;;10.48;65.34
15817;BME280;8009;50.070;8.232;2024-02-26T09:30:08;98347.09;;;10.89;64.25
15817;BME280;8009;50.070;8.232;2024-02-26T09:32:36;98347.84;;;10.56;65.64
15817;BME280;8009;50.070;8.232;2024-02-26T09:35:07;98358.59;;;10.47;64.41
15817;BME280;8009;50.070;8.232;2024-02-26T09:37:36;98365.53;;;10.32;66.15
15817;BME280;8009;50.070;8.232;2024-02-26T09:40:05;98362.44;;;10.45;65.81
15817;BME280;8009;50.070;8.232;2024-02-26T09:42:35;98360.88;;;10.60;64.87
15817;BME280;8009;50.070;8.232;2024-02-26T09:45:06;98358.06;;;11.14;63.70
15817;BME280;8009;50.070;8.232;2024-02-26T09:47:38;98359.91;;;11.13;64.00
15817;BME280;8009;50.070;8.232;2024-02-26T09:50:09;98368.22;;;10.94;64.37
15817;BME280;8009;50.070;8.232;2024-02-26T09:52:41;98371.25;;;10.91;64.32
15817;BME280;8009;50.070;8.232;2024-02-26T09:55:10;98367.63;;;10.38;64.91
15817;BME280;8009;50.070;8.232;2024-02-26T09:57:44;98370.38;;;10.90;63.98
15817;BME280;8009;50.070;8.232;2024-02-26T10:00:17;98373.94;;;10.65;65.20
15817;BME280;8009;50.070;8.232;2024-02-26T10:02:46;98369.13;;;11.29;64.02
15817;BME280;8009;50.070;8.232;2024-02-26T10:05:19;98366.31;;;11.38;62.91
15817;BME280;8009;50.070;8.232;2024-02-26T10:07:47;98379.94;;;11.03;63.76
15817;BME280;8009;50.070;8.232;2024-02-26T10:10:17;98377.19;;;11.20;63.50
15817;BME280;8009;50.070;8.232;2024-02-26T10:12:45;98389.22;;;11.26;63.91
15817;BME280;8009;50.070;8.232;2024-02-26T10:15:14;98386.72;;;11.67;61.86
15817;BME280;8009;50.070;8.232;2024-02-26T10:17:43;98391.25;;;11.58;62.76
15817;BME280;8009;50.070;8.232;2024-02-26T10:20:12;98389.97;;;11.44;63.44
15817;BME280;8009;50.070;8.232;2024-02-26T10:22:44;98397.94;;;11.20;64.01
15817;BME280;8009;50.070;8.232;2024-02-26T10:25:13;98400.91;;;11.09;63.82
15817;BME280;8009;50.070;8.232;2024-02-26T10:27:41;98396.84;;;11.05;63.19
15817;BME280;8009;50.070;8.232;2024-02-26T10:30:17;98403.88;;;10.97;64.09
15817;BME280;8009;50.070;8.232;2024-02-26T10:32:47;98404.34;;;10.93;63.55
15817;BME280;8009;50.070;8.232;2024-02-26T10:35:16;98411.34;;;11.04;63.10
15817;BME280;8009;50.070;8.232;2024-02-26T10:37:49;98411.44;;;10.94;63.68
15817;BME280;8009;50.070;8.232;2024-02-26T10:40:18;98424.19;;;10.84;64.01
15817;BME280;8009;50.070;8.232;2024-02-26T10:42:46;98417.50;;;10.70;63.42
15817;BME280;8009;50.070;8.232;2024-02-26T10:45:14;98419.56;;;11.20;62.41
15817;BME280;8009;50.070;8.232;2024-02-26T10:47:44;98410.72;;;11.36;61.92
15817;BME280;8009;50.070;8.232;2024-02-26T10:50:14;98417.69;;;11.46;62.85
15817;BME280;8009;50.070;8.232;2024-02-26T10:52:43;98428.34;;;10.96;63.62
15817;BME280;8009;50.070;8.232;2024-02-26T10:55:16;98436.31;;;11.23;62.33
15817;BME280;8009;50.070;8.232;2024-02-26T10:57:46;98429.25;;;11.31;62.44
15817;BME280;8009;50.070;8.232;2024-02-26T11:00:16;98421.84;;;11.07;62.74
15817;BME280;8009;50.070;8.232;2024-02-26T11:02:45;98434.16;;;10.65;64.17
15817;BME280;8009;50.070;8.232;2024-02-26T11:05:14;98433.91;;;10.59;63.99
15817;BME280;8009;50.070;8.232;2024-02-26T11:07:45;98438.31;;;10.95;62.97
15817;BME280;8009;50.070;8.232;2024-02-26T11:10:18;98439.91;;;11.32;61.96
15817;BME280;8009;50.070;8.232;2024-02-26T11:12:47;98430.97;;;11.66;61.28
15817;BME280;8009;50.070;8.232;2024-02-26T11:15:18;98427.22;;;11.85;60.77
15817;BME280;8009;50.070;8.232;2024-02-26T11:17:47;98436.34;;;11.84;61.19
15817;BME280;8009;50.070;8.232;2024-02-26T11:20:17;98445.31;;;11.58;62.15
15817;BME280;8009;50.070;8.232;2024-02-26T11:22:47;98444.22;;;11.77;61.67
15817;BME280;8009;50.070;8.232;2024-02-26T11:25:18;98438.13;;;12.09;61.67
15817;BME280;8009;50.070;8.232;2024-02-26T11:27:50;98445.25;;;11.76;60.88
15817;BME280;8009;50.070;8.232;2024-02-26T11:30:20;98441.16;;;11.98;61.07
15817;BME280;8009;50.070;8.232;2024-02-26T11:32:50;98439.72;;;12.28;60.17
15817;BME280;8009;50.070;8.232;2024-02-26T11:35:19;98441.22;;;12.23;60.05
15817;BME280;8009;50.070;8.232;2024-02-26T11:37:53;98443.09;;;12.22;60.00
15817;BME280;8009;50.070;8.232;2024-02-26T11:40:25;98443.34;;;12.53;58.76
15817;BME280;8009;50.070;8.232;2024-02-26T11:42:54;98455.66;;;11.97;60.27
15817;BME280;8009;50.070;8.232;2024-02-26T11:45:49;98444.69;;;12.65;58.43
15817;BME280;8009;50.070;8.232;2024-02-26T11:48:22;98436.75;;;12.88;57.66
15817;BME280;8009;50.070;8.232;2024-02-26T11:50:51;98441.66;;;12.02;60.02
15817;BME280;8009;50.070;8.232;2024-02-26T11:53:24;98433.97;;;12.39;59.62
15817;BME280;8009;50.070;8.232;2024-02-26T11:56:20;98433.66;;;12.51;59.58
15817;BME280;8009;50.070;8.232;2024-02-26T11:58:47;98438.00;;;12.19;59.87
15817;BME280;8009;50.070;8.232;2024-02-26T12:01:37;98435.66;;;12.32;59.56
15817;BME280;8009;50.070;8.232;2024-02-26T12:04:04;98435.53;;;12.42;59.28
15817;BME280;8009;50.070;8.232;2024-02-26T12:06:41;98435.41;;;12.84;58.61
15817;BME280;8009;50.070;8.232;2024-02-26T12:09:07;98436.44;;;12.83;59.33
15817;BME280;8009;50.070;8.232;2024-02-26T12:11:40;98442.84;;;12.74;59.03
15817;BME280;8009;50.070;8.232;2024-02-26T12:14:10;98440.81;;;12.92;58.33
15817;BME280;8009;50.070;8.232;2024-02-26T12:16:39;98444.56;;;12.83;58.78
15817;BME280;8009;50.070;8.232;2024-02-26T12:19:09;98450.66;;;13.02;57.49
15817;BME280;8009;50.070;8.232;2024-02-26T12:21:37;98465.22;;;12.92;58.60
15817;BME280;8009;50.070;8.232;2024-02-26T12:24:13;98453.84;;;12.97;58.67
15817;BME280;8009;50.070;8.232;2024-02-26T12:26:44;98458.78;;;13.18;57.54
15817;BME280;8009;50.070;8.232;2024-02-26T12:29:12;98452.16;;;13.04;57.70
15817;BME280;8009;50.070;8.232;2024-02-26T12:31:41;98457.44;;;13.06;57.77
15817;BME280;8009;50.070;8.232;2024-02-26T12:34:10;98453.66;;;12.74;58.60
15817;BME280;8009;50.070;8.232;2024-02-26T12:36:39;98458.75;;;12.77;58.79
15817;BME280;8009;50.070;8.232;2024-02-26T12:39:08;98466.47;;;12.48;59.88
15817;BME280;8009;50.070;8.232;2024-02-26T12:41:38;98467.72;;;12.69;59.26
15817;BME280;8009;50.070;8.232;2024-02-26T12:44:13;98467.38;;;12.56;59.76
15817;BME280;8009;50.070;8.232;2024-02-26T12:46:44;98469.88;;;12.50;59.64
15817;BME280;8009;50.070;8.232;2024-02-26T12:49:15;98467.16;;;12.33;60.37
15817;BME280;8009;50.070;8.232;2024-02-26T12:51:44;98474.94;;;12.36;60.21
15817;BME280;8009;50.070;8.232;2024-02-26T12:54:13;98476.34;;;12.65;59.85
15817;BME280;8009;50.070;8.232;2024-02-26T12:56:42;98472.94;;;12.63;59.48
15817;BME280;8009;50.070;8.232;2024-02-26T12:59:13;98477.06;;;12.25;60.39
15817;BME280;8009;50.070;8.232;2024-02-26T13:01:41;98471.59;;;12.59;60.38
15817;BME280;8009;50.070;8.232;2024-02-26T13:04:10;98474.88;;;12.95;58.69
15817;BME280;8009;50.070;8.232;2024-02-26T13:06:38;98473.75;;;12.47;59.20
15817;BME280;8009;50.070;8.232;2024-02-26T13:09:07;98469.91;;;12.74;58.84
15817;BME280;8009;50.070;8.232;2024-02-26T13:11:36;98475.00;;;12.77;58.90
15817;BME280;8009;50.070;8.232;2024-02-26T13:14:07;98474.72;;;13.13;58.15
15817;BME280;8009;50.070;8.232;2024-02-26T13:16:39;98484.03;;;12.94;58.47
15817;BME280;8009;50.070;8.232;2024-02-26T13:19:10;98488.22;;;12.72;58.82
15817;BME280;8009;50.070;8.232;2024-02-26T13:21:38;98488.94;;;13.07;58.67
15817;BME280;8009;50.070;8.232;2024-02-26T13:24:07;98487.91;;;12.91;59.41